sensor_id;sensor_type;location;lat;lon;timestamp;temperature;humidity
1578;DHT22;57623;53.608;10.004;2024-02-23T00:01:16;10.30;99.90
1578;DHT22;57623;53.608;10.004;2024-02-23T00:03:44;10.30;99.90
1578;DHT22;57623;53.608;10.004;2024-02-23T00:06:12;10.20;99.90
1578;DHT22;57623;53.608;10.004;2024-02-23T00:08:41;10.20;99.90
1578;DHT22;57623;53.608;10.004;2024-02-23T00:11:09;10.10;99.90
1578;DHT22;57623;53.608;10.004;2024-02-23T00:13:38;10.10;99.90
1578;DHT22;57623;53.608;10.004;2024-02-23T00:16:06;10.00;99.90
1578;DHT22;57623;53.608;10.004;2024-02-23T00:18:35;10.00;99.90
1578;DHT22;57623;53.608;10.004;2024-02-23T00:21:03;9.90;99.90
1578;DHT22;57623;53.608;10.004;2024-02-23T00:23:31;9.90;99.90
1578;DHT22;57623;53.608;10.004;2024-02-23T00:25:59;9.80;99.90
1578;DHT22;57623;53.608;10.004;2024-02-23T00:28:27;9.80;99.90
1578;DHT22;57623;53.608;10.004;2024-02-23T00:30:55;9.80;99.90
1578;DHT22;57623;53.608;10.004;2024-02-23T00:33:24;9.70;99.90
1578;DHT22;57623;53.608;10.004;2024-02-23T00:35:53;9.70;99.90
1578;DHT22;57623;53.608;10.004;2024-02-23T00:38:21;9.70;99.90
1578;DHT22;57623;53.608;10.004;2024-02-23T00:40:49;9.70;99.90
1578;DHT22;57623;53.608;10.004;2024-02-23T00:43:19;9.70;99.90
1578;DHT22;57623;53.608;10.004;2024-02-23T00:45:47;9.70;99.90
1578;DHT22;57623;53.608;10.004;2024-02-23T00:48:18;9.70;99.90
1578;DHT22;57623;53.608;10.004;2024-02-23T00:50:46;9.70;99.90
1578;DHT22;57623;53.608;10.004;2024-02-23T00:53:15;9.60;99.90
1578;DHT22;57623;53.608;10.004;2024-02-23T00:55:44;9.50;99.90
1578;DHT22;57623;53.608;10.004;2024-02-23T00:58:12;9.20;99.90
1578;DHT22;57623;53.608;10.004;2024-02-23T01:00:42;9.00;99.90
1578;DHT22;57623;53.608;10.004;2024-02-23T01:03:10;8.80;99.90
1578;DHT22;57623;53.608;10.004;2024-02-23T01:05:38;8.50;99.90
1578;DHT22;57623;53.608;10.004;2024-02-23T01:08:07;8.40;99.90
1578;DHT22;57623;53.608;10.004;2024-02-23T01:10:36;8.30;99.90
1578;DHT22;57623;53.608;10.004;2024-02-23T01:13:04;8.20;99.90
1578;DHT22;57623;53.608;10.004;2024-02-23T01:15:32;8.30;99.90
1578;DHT22;57623;53.608;10.004;2024-02-23T01:18:01;8.20;99.90
1578;DHT22;57623;53.608;10.004;2024-02-23T01:20:29;8.10;99.90
1578;DHT22;57623;53.608;10.004;2024-02-23T01:22:57;8.10;99.90
1578;DHT22;57623;53.608;10.004;2024-02-23T01:25:25;8.00;99.90
1578;DHT22;57623;53.608;10.004;2024-02-23T01:27:54;8.00;99.90
1578;DHT22;57623;53.608;10.004;2024-02-23T01:30:22;8.00;99.90
1578;DHT22;57623;53.608;10.004;2024-02-23T01:32:50;7.90;99.90
1578;DHT22;57623;53.608;10.004;2024-02-23T01:35:19;7.90;99.90
1578;DHT22;57623;53.608;10.004;2024-02-23T01:37:47;7.80;99.90
1578;DHT22;57623;53.608;10.004;2024-02-23T01:40:15;7.80;99.90
1578;DHT22;57623;53.608;10.004;2024-02-23T01:42:43;7.80;99.90
1578;DHT22;57623;53.608;10.004;2024-02-23T01:45:12;7.80;99.90
1578;DHT22;57623;53.608;10.004;2024-02-23T01:47:40;7.80;99.90
1578;DHT22;57623;53.608;10.004;2024-02-23T01:50:09;7.80;99.90
1578;DHT22;57623;53.608;10.004;2024-02-23T01:52:39;7.80;99.90
1578;DHT22;57623;53.608;10.004;2024-02-23T01:55:07;7.80;99.90
1578;DHT22;57623;53.608;10.004;2024-02-23T01:57:36;7.80;99.90
1578;DHT22;57623;53.608;10.004;2024-02-23T02:00:18;7.80;99.90
1578;DHT22;57623;53.608;10.004;2024-02-23T02:02:48;7.70;99.90
1578;DHT22;57623;53.608;10.004;2024-02-23T02:05:16;7.70;99.90
1578;DHT22;57623;53.608;10.004;2024-02-23T02:07:45;7.70;99.90
1578;DHT22;57623;53.608;10.004;2024-02-23T02:10:14;7.70;99.90
1578;DHT22;57623;53.608;10.004;2024-02-23T02:12:42;7.70;99.90
1578;DHT22;57623;53.608;10.004;2024-02-23T02:15:09;7.60;99.90
1578;DHT22;57623;53.608;10.004;2024-02-23T02:17:39;7.60;99.90
1578;DHT22;57623;53.608;10.004;2024-02-23T02:20:11;7.50;99.90
1578;DHT22;57623;53.608;10.004;2024-02-23T02:22:40;7.50;99.90
1578;DHT22;57623;53.608;10.004;2024-02-23T02:25:08;7.50;99.90
1578;DHT22;57623;53.608;10.004;2024-02-23T02:27:36;7.40;99.90
1578;DHT22;57623;53.608;10.004;2024-02-23T02:30:05;7.40;99.90
1578;DHT22;57623;53.608;10.004;2024-02-23T02:32:35;7.30;99.90
1578;DHT22;57623;53.608;10.004;2024-02-23T02:35:05;7.30;99.90
1578;DHT22;57623;53.608;10.004;2024-02-23T02:37:34;7.30;99.90
1578;DHT22;57623;53.608;10.004;2024-02-23T02:40:03;7.30;99.90
1578;DHT22;57623;53.608;10.004;2024-02-23T02:42:32;7.20;99.90
1578;DHT22;57623;53.608;10.004;2024-02-23T02:45:00;7.10;99.90
1578;DHT22;57623;53.608;10.004;2024-02-23T02:47:29;7.10;99.90
1578;DHT22;57623;53.608;10.004;2024-02-23T02:49:57;7.10;99.90
1578;DHT22;57623;53.608;10.004;2024-02-23T02:52:27;7.00;99.90
1578;DHT22;57623;53.608;10.004;2024-02-23T02:54:55;7.00;99.90
1578;DHT22;57623;53.608;10.004;2024-02-23T02:57:23;7.00;99.90
1578;DHT22;57623;53.608;10.004;2024-02-23T02:59:51;6.90;99.90
1578;DHT22;57623;53.608;10.004;2024-02-23T03:02:19;6.90;99.90
1578;DHT22;57623;53.608;10.004;2024-02-23T03:04:47;6.80;99.90
1578;DHT22;57623;53.608;10.004;2024-02-23T03:07:16;6.80;99.90
1578;DHT22;57623;53.608;10.004;2024-02-23T03:09:46;6.80;99.90
1578;DHT22;57623;53.608;10.004;2024-02-23T03:12:15;6.70;99.90
1578;DHT22;57623;53.608;10.004;2024-02-23T03:14:44;6.70;99.90
1578;DHT22;57623;53.608;10.004;2024-02-23T03:17:12;6.70;99.90
1578;DHT22;57623;53.608;10.004;2024-02-23T03:19:40;6.60;99.90
1578;DHT22;57623;53.608;10.004;2024-02-23T03:22:08;6.60;99.90
1578;DHT22;57623;53.608;10.004;2024-02-23T03:24:36;6.60;99.90
1578;DHT22;57623;53.608;10.004;2024-02-23T03:27:05;6.60;99.90
1578;DHT22;57623;53.608;10.004;2024-02-23T03:29:33;6.50;99.90
1578;DHT22;57623;53.608;10.004;2024-02-23T03:32:02;6.50;99.90
1578;DHT22;57623;53.608;10.004;2024-02-23T03:34:30;6.50;99.90
1578;DHT22;57623;53.608;10.004;2024-02-23T03:36:58;6.50;99.90
1578;DHT22;57623;53.608;10.004;2024-02-23T03:39:28;6.50;99.90
1578;DHT22;57623;53.608;10.004;2024-02-23T03:41:56;6.50;99.90
1578;DHT22;57623;53.608;10.004;2024-02-23T03:44:25;6.40;99.90
1578;DHT22;57623;53.608;10.004;2024-02-23T03:46:53;6.50;99.90
1578;DHT22;57623;53.608;10.004;2024-02-23T03:49:21;6.50;99.90
1578;DHT22;57623;53.608;10.004;2024-02-23T03:51:49;6.50;99.90
1578;DHT22;57623;53.608;10.004;2024-02-23T03:54:17;6.40;99.90
1578;DHT22;57623;53.608;10.004;2024-02-23T03:56:45;6.30;99.90
1578;DHT22;57623;53.608;10.004;2024-02-23T03:59:13;6.30;99.90
1578;DHT22;57623;53.608;10.004;2024-02-23T04:01:43;6.30;99.90
1578;DHT22;57623;53.608;10.004;2024-02-23T04:04:11;6.30;99.90
1578;DHT22;57623;53.608;10.004;2024-02-23T04:06:39;6.20;99.90
1578;DHT22;57623;53.608;10.004;2024-02-23T04:09:07;6.20;99.90
1578;DHT22;57623;53.608;10.004;2024-02-23T04:11:35;6.10;99.90
1578;DHT22;57623;53.608;10.004;2024-02-23T04:14:03;6.10;99.90
1578;DHT22;57623;53.608;10.004;2024-02-23T04:16:32;6.00;99.90
1578;DHT22;57623;53.608;10.004;2024-02-23T04:19:02;6.00;99.90
1578;DHT22;57623;53.608;10.004;2024-02-23T04:21:30;6.00;99.90
1578;DHT22;57623;53.608;10.004;2024-02-23T04:23:58;6.00;99.90
1578;DHT22;57623;53.608;10.004;2024-02-23T04:26:26;6.00;99.90
1578;DHT22;57623;53.608;10.004;2024-02-23T04:28:54;6.00;99.90
1578;DHT22;57623;53.608;10.004;2024-02-23T04:31:22;6.00;99.90
1578;DHT22;57623;53.608;10.004;2024-02-23T04:33:50;6.00;99.90
1578;DHT22;57623;53.608;10.004;2024-02-23T04:36:20;6.00;99.90
1578;DHT22;57623;53.608;10.004;2024-02-23T04:38:48;6.00;99.90
1578;DHT22;57623;53.608;10.004;2024-02-23T04:41:19;6.10;99.90
1578;DHT22;57623;53.608;10.004;2024-02-23T04:43:48;6.10;99.90
1578;DHT22;57623;53.608;10.004;2024-02-23T04:46:16;6.10;99.90
1578;DHT22;57623;53.608;10.004;2024-02-23T04:48:44;6.10;99.90
1578;DHT22;57623;53.608;10.004;2024-02-23T04:51:12;6.10;99.90
1578;DHT22;57623;53.608;10.004;2024-02-23T04:53:42;6.00;99.90
1578;DHT22;57623;53.608;10.004;2024-02-23T04:56:10;6.00;99.90
1578;DHT22;57623;53.608;10.004;2024-02-23T04:58:38;6.00;99.90
1578;DHT22;57623;53.608;10.004;2024-02-23T05:01:08;6.00;99.90
1578;DHT22;57623;53.608;10.004;2024-02-23T05:03:36;6.00;99.90
1578;DHT22;57623;53.608;10.004;2024-02-23T05:06:05;5.90;99.90
1578;DHT22;57623;53.608;10.004;2024-02-23T05:08:33;6.00;99.90
1578;DHT22;57623;53.608;10.004;2024-02-23T05:11:02;5.90;99.90
1578;DHT22;57623;53.608;10.004;2024-02-23T05:13:31;5.90;99.90
1578;DHT22;57623;53.608;10.004;2024-02-23T05:15:59;6.00;99.90
1578;DHT22;57623;53.608;10.004;2024-02-23T05:18:27;5.90;99.90
1578;DHT22;57623;53.608;10.004;2024-02-23T05:20:54;5.90;99.90
1578;DHT22;57623;53.608;10.004;2024-02-23T05:23:22;5.90;99.90
1578;DHT22;57623;53.608;10.004;2024-02-23T05:25:50;5.90;99.90
1578;DHT22;57623;53.608;10.004;2024-02-23T05:28:20;5.80;99.90
1578;DHT22;57623;53.608;10.004;2024-02-23T05:30:48;5.80;99.90
1578;DHT22;57623;53.608;10.004;2024-02-23T05:33:16;5.80;99.90
1578;DHT22;57623;53.608;10.004;2024-02-23T05:35:47;5.80;99.90
1578;DHT22;57623;53.608;10.004;2024-02-23T05:38:16;5.80;99.90
1578;DHT22;57623;53.608;10.004;2024-02-23T05:40:44;5.80;99.90
1578;DHT22;57623;53.608;10.004;2024-02-23T05:43:12;5.80;99.90
1578;DHT22;57623;53.608;10.004;2024-02-23T05:45:42;5.80;99.90
1578;DHT22;57623;53.608;10.004;2024-02-23T05:48:10;5.80;99.90
1578;DHT22;57623;53.608;10.004;2024-02-23T05:50:39;5.80;99.90
1578;DHT22;57623;53.608;10.004;2024-02-23T05:53:07;5.80;99.90
1578;DHT22;57623;53.608;10.004;2024-02-23T05:55:35;5.80;99.90
1578;DHT22;57623;53.608;10.004;2024-02-23T05:58:03;5.90;99.90
1578;DHT22;57623;53.608;10.004;2024-02-23T06:00:32;5.80;99.90
1578;DHT22;57623;53.608;10.004;2024-02-23T06:03:02;5.80;99.90
1578;DHT22;57623;53.608;10.004;2024-02-23T06:05:30;5.80;99.90
1578;DHT22;57623;53.608;10.004;2024-02-23T06:07:58;5.80;99.90
1578;DHT22;57623;53.608;10.004;2024-02-23T06:10:26;5.80;99.90
1578;DHT22;57623;53.608;10.004;2024-02-23T06:12:54;5.80;99.90
1578;DHT22;57623;53.608;10.004;2024-02-23T06:15:24;5.80;99.90
1578;DHT22;57623;53.608;10.004;2024-02-23T06:17:52;5.70;99.90
1578;DHT22;57623;53.608;10.004;2024-02-23T06:20:21;5.70;99.90
1578;DHT22;57623;53.608;10.004;2024-02-23T06:22:49;5.70;99.90
1578;DHT22;57623;53.608;10.004;2024-02-23T06:25:18;5.70;99.90
1578;DHT22;57623;53.608;10.004;2024-02-23T06:27:46;5.70;99.90
1578;DHT22;57623;53.608;10.004;2024-02-23T06:30:14;5.70;99.90
1578;DHT22;57623;53.608;10.004;2024-02-23T06:32:43;5.70;99.90
1578;DHT22;57623;53.608;10.004;2024-02-23T06:35:12;5.70;99.90
1578;DHT22;57623;53.608;10.004;2024-02-23T06:37:42;5.70;99.90
1578;DHT22;57623;53.608;10.004;2024-02-23T06:40:11;5.70;99.90
1578;DHT22;57623;53.608;10.004;2024-02-23T06:42:39;5.70;99.90
1578;DHT22;57623;53.608;10.004;2024-02-23T06:45:07;5.70;99.90
1578;DHT22;57623;53.608;10.004;2024-02-23T06:47:35;5.70;99.90
1578;DHT22;57623;53.608;10.004;2024-02-23T06:50:04;5.70;99.90
1578;DHT22;57623;53.608;10.004;2024-02-23T06:52:33;5.70;99.90
1578;DHT22;57623;53.608;10.004;2024-02-23T06:55:02;5.60;99.90
1578;DHT22;57623;53.608;10.004;2024-02-23T06:57:30;5.60;99.90
1578;DHT22;57623;53.608;10.004;2024-02-23T06:59:58;5.60;99.90
1578;DHT22;57623;53.608;10.004;2024-02-23T07:02:27;5.60;99.90
1578;DHT22;57623;53.608;10.004;2024-02-23T07:04:58;5.60;99.90
1578;DHT22;57623;53.608;10.004;2024-02-23T07:07:26;5.60;99.90
1578;DHT22;57623;53.608;10.004;2024-02-23T07:09:55;5.70;99.90
1578;DHT22;57623;53.608;10.004;2024-02-23T07:12:25;5.70;99.90
1578;DHT22;57623;53.608;10.004;2024-02-23T07:14:53;5.70;99.90
1578;DHT22;57623;53.608;10.004;2024-02-23T07:17:22;5.70;99.90
1578;DHT22;57623;53.608;10.004;2024-02-23T07:19:50;5.70;99.90
1578;DHT22;57623;53.608;10.004;2024-02-23T07:22:19;5.70;99.90
1578;DHT22;57623;53.608;10.004;2024-02-23T07:24:47;5.70;99.90
1578;DHT22;57623;53.608;10.004;2024-02-23T07:27:16;5.70;99.90
1578;DHT22;57623;53.608;10.004;2024-02-23T07:29:45;5.70;99.90
1578;DHT22;57623;53.608;10.004;2024-02-23T07:32:13;5.70;99.90
1578;DHT22;57623;53.608;10.004;2024-02-23T07:34:42;5.70;99.90
1578;DHT22;57623;53.608;10.004;2024-02-23T07:37:10;5.70;99.90
1578;DHT22;57623;53.608;10.004;2024-02-23T07:39:38;5.70;99.90
1578;DHT22;57623;53.608;10.004;2024-02-23T07:42:06;5.70;99.90
1578;DHT22;57623;53.608;10.004;2024-02-23T07:44:36;5.70;99.90
1578;DHT22;57623;53.608;10.004;2024-02-23T07:47:06;5.70;99.90
1578;DHT22;57623;53.608;10.004;2024-02-23T07:49:34;5.70;99.90
1578;DHT22;57623;53.608;10.004;2024-02-23T07:52:03;5.70;99.90
1578;DHT22;57623;53.608;10.004;2024-02-23T07:54:31;5.70;99.90
1578;DHT22;57623;53.608;10.004;2024-02-23T07:56:59;5.70;99.90
1578;DHT22;57623;53.608;10.004;2024-02-23T07:59:27;5.70;99.90
1578;DHT22;57623;53.608;10.004;2024-02-23T08:01:56;5.70;99.90
1578;DHT22;57623;53.608;10.004;2024-02-23T08:04:25;5.70;99.90
1578;DHT22;57623;53.608;10.004;2024-02-23T08:06:53;5.80;99.90
1578;DHT22;57623;53.608;10.004;2024-02-23T08:09:21;5.80;99.90
1578;DHT22;57623;53.608;10.004;2024-02-23T08:11:50;5.90;99.90
1578;DHT22;57623;53.608;10.004;2024-02-23T08:14:19;5.90;99.90
1578;DHT22;57623;53.608;10.004;2024-02-23T08:16:47;6.00;99.90
1578;DHT22;57623;53.608;10.004;2024-02-23T08:19:16;6.00;99.90
1578;DHT22;57623;53.608;10.004;2024-02-23T08:21:46;6.10;99.90
1578;DHT22;57623;53.608;10.004;2024-02-23T08:24:13;6.10;99.90
1578;DHT22;57623;53.608;10.004;2024-02-23T08:26:41;6.10;99.90
1578;DHT22;57623;53.608;10.004;2024-02-23T08:29:09;6.20;99.90
1578;DHT22;57623;53.608;10.004;2024-02-23T08:31:38;6.20;99.90
1578;DHT22;57623;53.608;10.004;2024-02-23T08:34:08;6.30;99.90
1578;DHT22;57623;53.608;10.004;2024-02-23T08:36:36;6.30;99.90
1578;DHT22;57623;53.608;10.004;2024-02-23T08:39:06;6.30;99.90
1578;DHT22;57623;53.608;10.004;2024-02-23T08:41:35;6.40;99.90
1578;DHT22;57623;53.608;10.004;2024-02-23T08:44:03;6.40;99.90
1578;DHT22;57623;53.608;10.004;2024-02-23T08:46:32;6.50;99.90
1578;DHT22;57623;53.608;10.004;2024-02-23T08:49:00;6.60;99.90
1578;DHT22;57623;53.608;10.004;2024-02-23T08:51:28;6.70;99.90
1578;DHT22;57623;53.608;10.004;2024-02-23T08:53:56;6.70;99.90
1578;DHT22;57623;53.608;10.004;2024-02-23T08:56:31;6.80;99.90
1578;DHT22;57623;53.608;10.004;2024-02-23T08:58:59;6.80;99.90
1578;DHT22;57623;53.608;10.004;2024-02-23T09:01:27;6.80;99.90
1578;DHT22;57623;53.608;10.004;2024-02-23T09:03:55;6.80;99.90
1578;DHT22;57623;53.608;10.004;2024-02-23T09:06:24;6.80;99.90
1578;DHT22;57623;53.608;10.004;2024-02-23T09:08:52;6.90;99.90
1578;DHT22;57623;53.608;10.004;2024-02-23T09:11:20;6.90;99.90
1578;DHT22;57623;53.608;10.004;2024-02-23T09:13:49;6.90;99.90
1578;DHT22;57623;53.608;10.004;2024-02-23T09:16:17;6.90;99.90
1578;DHT22;57623;53.608;10.004;2024-02-23T09:18:45;6.90;99.90
1578;DHT22;57623;53.608;10.004;2024-02-23T09:21:14;7.00;99.90
1578;DHT22;57623;53.608;10.004;2024-02-23T09:23:42;7.00;99.90
1578;DHT22;57623;53.608;10.004;2024-02-23T09:26:10;7.10;99.90
1578;DHT22;57623;53.608;10.004;2024-02-23T09:28:39;7.10;99.90
1578;DHT22;57623;53.608;10.004;2024-02-23T09:31:09;7.20;99.90
1578;DHT22;57623;53.608;10.004;2024-02-23T09:33:37;7.20;99.90
1578;DHT22;57623;53.608;10.004;2024-02-23T09:36:06;7.20;99.90
1578;DHT22;57623;53.608;10.004;2024-02-23T09:38:34;7.20;99.90
1578;DHT22;57623;53.608;10.004;2024-02-23T09:41:03;7.20;99.90
1578;DHT22;57623;53.608;10.004;2024-02-23T09:43:32;7.20;99.90
1578;DHT22;57623;53.608;10.004;2024-02-23T09:46:01;7.30;99.90
1578;DHT22;57623;53.608;10.004;2024-02-23T09:48:31;7.40;99.90
1578;DHT22;57623;53.608;10.004;2024-02-23T09:51:03;7.40;99.90
1578;DHT22;57623;53.608;10.004;2024-02-23T09:53:33;7.40;99.90
1578;DHT22;57623;53.608;10.004;2024-02-23T09:56:05;7.50;99.90
1578;DHT22;57623;53.608;10.004;2024-02-23T09:58:34;7.50;99.90
1578;DHT22;57623;53.608;10.004;2024-02-23T10:01:03;7.60;99.90
1578;DHT22;57623;53.608;10.004;2024-02-23T10:03:33;7.70;99.90
1578;DHT22;57623;53.608;10.004;2024-02-23T10:06:01;7.70;99.90
1578;DHT22;57623;53.608;10.004;2024-02-23T10:08:29;7.70;99.90
1578;DHT22;57623;53.608;10.004;2024-02-23T10:10:58;7.80;99.90
1578;DHT22;57623;53.608;10.004;2024-02-23T10:13:26;7.80;99.90
1578;DHT22;57623;53.608;10.004;2024-02-23T10:15:54;7.80;99.90
1578;DHT22;57623;53.608;10.004;2024-02-23T10:18:41;7.90;99.90
1578;DHT22;57623;53.608;10.004;2024-02-23T10:21:09;7.90;99.90
1578;DHT22;57623;53.608;10.004;2024-02-23T10:23:38;8.00;99.90
1578;DHT22;57623;53.608;10.004;2024-02-23T10:26:07;8.10;99.90
1578;DHT22;57623;53.608;10.004;2024-02-23T10:28:36;8.10;99.90
1578;DHT22;57623;53.608;10.004;2024-02-23T10:31:06;8.10;99.90
1578;DHT22;57623;53.608;10.004;2024-02-23T10:33:41;8.20;99.90
1578;DHT22;57623;53.608;10.004;2024-02-23T10:36:11;8.20;99.90
1578;DHT22;57623;53.608;10.004;2024-02-23T10:38:44;8.30;99.90
1578;DHT22;57623;53.608;10.004;2024-02-23T10:41:13;8.30;99.90
1578;DHT22;57623;53.608;10.004;2024-02-23T10:43:47;8.40;99.90
1578;DHT22;57623;53.608;10.004;2024-02-23T10:46:15;8.40;99.90
1578;DHT22;57623;53.608;10.004;2024-02-23T10:48:45;8.50;99.90
1578;DHT22;57623;53.608;10.004;2024-02-23T10:51:14;8.50;99.90
1578;DHT22;57623;53.608;10.004;2024-02-23T10:53:47;8.50;99.90
1578;DHT22;57623;53.608;10.004;2024-02-23T10:56:16;8.50;99.90
1578;DHT22;57623;53.608;10.004;2024-02-23T10:58:44;8.60;99.90
1578;DHT22;57623;53.608;10.004;2024-02-23T11:01:13;8.50;99.90
1578;DHT22;57623;53.608;10.004;2024-02-23T11:03:43;8.50;99.90
1578;DHT22;57623;53.608;10.004;2024-02-23T11:06:16;8.50;99.90
1578;DHT22;57623;53.608;10.004;2024-02-23T11:08:48;8.40;99.90
1578;DHT22;57623;53.608;10.004;2024-02-23T11:11:17;8.30;99.90
1578;DHT22;57623;53.608;10.004;2024-02-23T11:13:46;8.30;99.90
1578;DHT22;57623;53.608;10.004;2024-02-23T11:16:21;8.40;99.90
1578;DHT22;57623;53.608;10.004;2024-02-23T11:19:03;8.40;99.90
1578;DHT22;57623;53.608;10.004;2024-02-23T11:21:36;8.60;99.90
1578;DHT22;57623;53.608;10.004;2024-02-23T11:24:05;8.60;99.90
1578;DHT22;57623;53.608;10.004;2024-02-23T11:26:37;8.60;99.90
1578;DHT22;57623;53.608;10.004;2024-02-23T11:29:10;8.70;99.90
1578;DHT22;57623;53.608;10.004;2024-02-23T11:31:44;8.70;99.90
1578;DHT22;57623;53.608;10.004;2024-02-23T11:34:13;8.70;99.90
1578;DHT22;57623;53.608;10.004;2024-02-23T11:36:42;8.60;99.90
1578;DHT22;57623;53.608;10.004;2024-02-23T11:39:10;8.50;99.90
1578;DHT22;57623;53.608;10.004;2024-02-23T11:41:39;8.40;99.90
1578;DHT22;57623;53.608;10.004;2024-02-23T11:44:08;8.50;99.90
1578;DHT22;57623;53.608;10.004;2024-02-23T11:46:36;8.50;99.90
1578;DHT22;57623;53.608;10.004;2024-02-23T11:49:04;8.50;99.90
1578;DHT22;57623;53.608;10.004;2024-02-23T11:51:33;8.60;99.90
1578;DHT22;57623;53.608;10.004;2024-02-23T11:54:03;8.80;99.90
1578;DHT22;57623;53.608;10.004;2024-02-23T11:56:31;8.90;99.90
1578;DHT22;57623;53.608;10.004;2024-02-23T11:58:59;9.00;99.90
1578;DHT22;57623;53.608;10.004;2024-02-23T12:01:29;9.10;99.90
1578;DHT22;57623;53.608;10.004;2024-02-23T12:03:58;9.10;99.90
1578;DHT22;57623;53.608;10.004;2024-02-23T12:06:27;9.00;99.90
1578;DHT22;57623;53.608;10.004;2024-02-23T12:08:59;9.00;99.90
1578;DHT22;57623;53.608;10.004;2024-02-23T12:11:29;8.80;99.90
1578;DHT22;57623;53.608;10.004;2024-02-23T12:13:57;8.80;99.90
1578;DHT22;57623;53.608;10.004;2024-02-23T12:16:27;8.80;99.90
1578;DHT22;57623;53.608;10.004;2024-02-23T12:18:55;8.90;99.90
1578;DHT22;57623;53.608;10.004;2024-02-23T12:21:23;9.10;99.90
1578;DHT22;57623;53.608;10.004;2024-02-23T12:23:52;9.20;99.90
1578;DHT22;57623;53.608;10.004;2024-02-23T12:26:20;9.20;99.90
1578;DHT22;57623;53.608;10.004;2024-02-23T12:28:50;9.10;99.90
1578;DHT22;57623;53.608;10.004;2024-02-23T12:31:24;9.00;99.90
1578;DHT22;57623;53.608;10.004;2024-02-23T12:33:53;8.80;99.90
1578;DHT22;57623;53.608;10.004;2024-02-23T12:36:23;8.70;99.90
1578;DHT22;57623;53.608;10.004;2024-02-23T12:38:51;8.70;99.90
1578;DHT22;57623;53.608;10.004;2024-02-23T12:41:19;8.60;99.90
1578;DHT22;57623;53.608;10.004;2024-02-23T12:43:47;8.50;99.90
1578;DHT22;57623;53.608;10.004;2024-02-23T12:46:16;8.50;99.90
1578;DHT22;57623;53.608;10.004;2024-02-23T12:48:44;8.60;99.90
1578;DHT22;57623;53.608;10.004;2024-02-23T12:51:12;8.60;99.90
1578;DHT22;57623;53.608;10.004;2024-02-23T12:53:42;8.60;99.90
1578;DHT22;57623;53.608;10.004;2024-02-23T12:56:12;8.70;99.90
1578;DHT22;57623;53.608;10.004;2024-02-23T12:58:42;8.80;99.90
1578;DHT22;57623;53.608;10.004;2024-02-23T13:01:10;8.90;99.90
1578;DHT22;57623;53.608;10.004;2024-02-23T13:03:40;9.10;99.90
1578;DHT22;57623;53.608;10.004;2024-02-23T13:06:09;9.50;99.90
1578;DHT22;57623;53.608;10.004;2024-02-23T13:08:37;9.70;99.90
1578;DHT22;57623;53.608;10.004;2024-02-23T13:11:07;9.90;99.90
1578;DHT22;57623;53.608;10.004;2024-02-23T13:13:35;10.40;99.90
1578;DHT22;57623;53.608;10.004;2024-02-23T13:16:06;11.60;99.90
1578;DHT22;57623;53.608;10.004;2024-02-23T13:18:35;12.70;99.90
1578;DHT22;57623;53.608;10.004;2024-02-23T13:21:05;12.90;96.40
1578;DHT22;57623;53.608;10.004;2024-02-23T13:23:33;12.80;95.10
1578;DHT22;57623;53.608;10.004;2024-02-23T13:26:01;12.20;98.80
1578;DHT22;57623;53.608;10.004;2024-02-23T13:28:30;11.70;99.90
1578;DHT22;57623;53.608;10.004;2024-02-23T13:30:58;11.10;99.90
1578;DHT22;57623;53.608;10.004;2024-02-23T13:33:25;10.70;99.90
1578;DHT22;57623;53.608;10.004;2024-02-23T13:35:54;10.30;99.90
1578;DHT22;57623;53.608;10.004;2024-02-23T13:38:24;10.00;99.90
1578;DHT22;57623;53.608;10.004;2024-02-23T13:40:52;9.70;99.90
1578;DHT22;57623;53.608;10.004;2024-02-23T13:43:20;9.60;99.90
1578;DHT22;57623;53.608;10.004;2024-02-23T13:45:49;9.50;99.90
1578;DHT22;57623;53.608;10.004;2024-02-23T13:48:18;9.40;99.90
1578;DHT22;57623;53.608;10.004;2024-02-23T13:50:47;9.30;99.90
1578;DHT22;57623;53.608;10.004;2024-02-23T13:53:15;9.30;99.90
1578;DHT22;57623;53.608;10.004;2024-02-23T13:55:45;9.20;99.90
1578;DHT22;57623;53.608;10.004;2024-02-23T13:58:13;9.10;99.90
1578;DHT22;57623;53.608;10.004;2024-02-23T14:00:41;9.10;99.90
1578;DHT22;57623;53.608;10.004;2024-02-23T14:03:15;9.00;99.90
1578;DHT22;57623;53.608;10.004;2024-02-23T14:05:45;9.00;99.90
1578;DHT22;57623;53.608;10.004;2024-02-23T14:08:14;8.90;99.90
1578;DHT22;57623;53.608;10.004;2024-02-23T14:10:42;8.90;99.90
1578;DHT22;57623;53.608;10.004;2024-02-23T14:13:12;8.90;99.90
1578;DHT22;57623;53.608;10.004;2024-02-23T14:15:40;8.90;99.90
1578;DHT22;57623;53.608;10.004;2024-02-23T14:18:08;9.00;99.90
1578;DHT22;57623;53.608;10.004;2024-02-23T14:20:36;9.00;99.90
1578;DHT22;57623;53.608;10.004;2024-02-23T14:23:04;9.00;99.90
1578;DHT22;57623;53.608;10.004;2024-02-23T14:25:32;9.10;99.90
1578;DHT22;57623;53.608;10.004;2024-02-23T14:28:00;9.20;99.90
1578;DHT22;57623;53.608;10.004;2024-02-23T14:30:29;9.40;99.90
1578;DHT22;57623;53.608;10.004;2024-02-23T14:32:57;9.70;99.90
1578;DHT22;57623;53.608;10.004;2024-02-23T14:35:26;9.80;99.90
1578;DHT22;57623;53.608;10.004;2024-02-23T14:37:54;9.80;99.90
1578;DHT22;57623;53.608;10.004;2024-02-23T14:40:22;9.70;99.90
1578;DHT22;57623;53.608;10.004;2024-02-23T14:42:50;9.60;99.90
1578;DHT22;57623;53.608;10.004;2024-02-23T14:45:18;9.50;99.90
1578;DHT22;57623;53.608;10.004;2024-02-23T14:47:47;9.50;99.90
1578;DHT22;57623;53.608;10.004;2024-02-23T14:50:15;9.50;99.90
1578;DHT22;57623;53.608;10.004;2024-02-23T14:52:43;9.50;99.90
1578;DHT22;57623;53.608;10.004;2024-02-23T14:55:12;9.40;99.90
1578;DHT22;57623;53.608;10.004;2024-02-23T14:57:40;9.30;99.90
1578;DHT22;57623;53.608;10.004;2024-02-23T15:00:09;9.30;99.90
1578;DHT22;57623;53.608;10.004;2024-02-23T15:02:38;9.20;99.90
1578;DHT22;57623;53.608;10.004;2024-02-23T15:05:08;9.20;99.90
1578;DHT22;57623;53.608;10.004;2024-02-23T15:07:36;9.20;99.90
1578;DHT22;57623;53.608;10.004;2024-02-23T15:10:05;9.20;99.90
1578;DHT22;57623;53.608;10.004;2024-02-23T15:12:35;9.10;99.90
1578;DHT22;57623;53.608;10.004;2024-02-23T15:15:04;9.20;99.90
1578;DHT22;57623;53.608;10.004;2024-02-23T15:17:33;9.10;99.90
1578;DHT22;57623;53.608;10.004;2024-02-23T15:20:02;9.20;99.90
1578;DHT22;57623;53.608;10.004;2024-02-23T15:22:32;9.20;99.90
1578;DHT22;57623;53.608;10.004;2024-02-23T15:25:00;9.20;99.90
1578;DHT22;57623;53.608;10.004;2024-02-23T15:27:30;9.20;99.90
1578;DHT22;57623;53.608;10.004;2024-02-23T15:29:58;9.20;99.90
1578;DHT22;57623;53.608;10.004;2024-02-23T15:32:26;9.20;99.90
1578;DHT22;57623;53.608;10.004;2024-02-23T15:34:55;9.20;99.90
1578;DHT22;57623;53.608;10.004;2024-02-23T15:37:23;9.20;99.90
1578;DHT22;57623;53.608;10.004;2024-02-23T15:39:52;9.30;99.90
1578;DHT22;57623;53.608;10.004;2024-02-23T15:42:20;9.30;99.90
1578;DHT22;57623;53.608;10.004;2024-02-23T15:44:48;9.30;99.90
1578;DHT22;57623;53.608;10.004;2024-02-23T15:47:16;9.30;99.90
1578;DHT22;57623;53.608;10.004;2024-02-23T15:49:44;9.20;99.90
1578;DHT22;57623;53.608;10.004;2024-02-23T15:52:32;9.20;99.90
1578;DHT22;57623;53.608;10.004;2024-02-23T15:55:02;9.20;99.90